sensor_id;sensor_type;location;lat;lon;timestamp;temperature;humidity
1956;DHT22;978;48.314;11.562;2022-08-21T00:01:11;22.70;88.00
1956;DHT22;978;48.314;11.562;2022-08-21T00:03:40;22.70;88.00
1956;DHT22;978;48.314;11.562;2022-08-21T00:06:08;22.70;88.00
1956;DHT22;978;48.314;11.562;2022-08-21T00:08:37;22.70;88.00
1956;DHT22;978;48.314;11.562;2022-08-21T00:11:05;22.70;88.00
1956;DHT22;978;48.314;11.562;2022-08-21T00:13:34;22.70;87.90
1956;DHT22;978;48.314;11.562;2022-08-21T00:16:03;22.70;87.90
1956;DHT22;978;48.314;11.562;2022-08-21T00:18:30;22.70;87.90
1956;DHT22;978;48.314;11.562;2022-08-21T00:20:59;22.70;88.00
1956;DHT22;978;48.314;11.562;2022-08-21T00:23:27;22.70;87.90
1956;DHT22;978;48.314;11.562;2022-08-21T00:25:54;22.70;87.90
1956;DHT22;978;48.314;11.562;2022-08-21T00:28:20;22.70;87.90
1956;DHT22;978;48.314;11.562;2022-08-21T00:30:47;22.70;87.90
1956;DHT22;978;48.314;11.562;2022-08-21T00:33:14;22.70;87.90
1956;DHT22;978;48.314;11.562;2022-08-21T00:35:43;22.70;87.90
1956;DHT22;978;48.314;11.562;2022-08-21T00:38:11;22.70;87.90
1956;DHT22;978;48.314;11.562;2022-08-21T00:40:43;22.70;87.90
1956;DHT22;978;48.314;11.562;2022-08-21T00:43:13;22.70;87.90
1956;DHT22;978;48.314;11.562;2022-08-21T00:45:42;22.70;87.90
1956;DHT22;978;48.314;11.562;2022-08-21T00:48:11;22.70;87.90
1956;DHT22;978;48.314;11.562;2022-08-21T00:50:43;22.70;87.90
1956;DHT22;978;48.314;11.562;2022-08-21T00:53:11;22.70;87.90
1956;DHT22;978;48.314;11.562;2022-08-21T00:55:41;22.70;87.90
1956;DHT22;978;48.314;11.562;2022-08-21T00:58:10;22.70;87.90
1956;DHT22;978;48.314;11.562;2022-08-21T01:00:41;22.70;87.90
1956;DHT22;978;48.314;11.562;2022-08-21T01:03:11;22.70;87.90
1956;DHT22;978;48.314;11.562;2022-08-21T01:05:40;22.70;87.90
1956;DHT22;978;48.314;11.562;2022-08-21T01:08:08;22.70;87.90
1956;DHT22;978;48.314;11.562;2022-08-21T01:10:36;22.70;87.90
1956;DHT22;978;48.314;11.562;2022-08-21T01:13:08;22.70;87.90
1956;DHT22;978;48.314;11.562;2022-08-21T01:15:39;22.70;87.90
1956;DHT22;978;48.314;11.562;2022-08-21T01:18:08;22.70;87.90
1956;DHT22;978;48.314;11.562;2022-08-21T01:20:40;22.70;87.90
1956;DHT22;978;48.314;11.562;2022-08-21T01:23:09;22.70;87.90
1956;DHT22;978;48.314;11.562;2022-08-21T01:25:38;22.70;87.90
1956;DHT22;978;48.314;11.562;2022-08-21T01:28:10;22.70;87.90
1956;DHT22;978;48.314;11.562;2022-08-21T01:30:40;22.70;87.90
1956;DHT22;978;48.314;11.562;2022-08-21T01:33:10;22.70;87.90
1956;DHT22;978;48.314;11.562;2022-08-21T01:35:38;22.70;87.90
1956;DHT22;978;48.314;11.562;2022-08-21T01:38:06;22.70;87.90
1956;DHT22;978;48.314;11.562;2022-08-21T01:40:34;22.70;87.90
1956;DHT22;978;48.314;11.562;2022-08-21T01:43:03;22.70;87.90
1956;DHT22;978;48.314;11.562;2022-08-21T01:45:30;22.70;87.90
1956;DHT22;978;48.314;11.562;2022-08-21T01:47:57;22.70;87.90
1956;DHT22;978;48.314;11.562;2022-08-21T01:50:24;22.70;87.90
1956;DHT22;978;48.314;11.562;2022-08-21T01:52:51;22.70;87.90
1956;DHT22;978;48.314;11.562;2022-08-21T01:55:18;22.70;87.90
1956;DHT22;978;48.314;11.562;2022-08-21T01:57:48;22.70;87.90
1956;DHT22;978;48.314;11.562;2022-08-21T02:00:19;22.70;87.90
1956;DHT22;978;48.314;11.562;2022-08-21T02:02:48;22.70;87.90
1956;DHT22;978;48.314;11.562;2022-08-21T02:05:15;22.70;87.90
1956;DHT22;978;48.314;11.562;2022-08-21T02:07:45;22.70;87.90
1956;DHT22;978;48.314;11.562;2022-08-21T02:10:15;22.70;87.80
1956;DHT22;978;48.314;11.562;2022-08-21T02:12:44;22.70;87.90
1956;DHT22;978;48.314;11.562;2022-08-21T02:15:12;22.70;87.90
1956;DHT22;978;48.314;11.562;2022-08-21T02:17:43;22.70;87.90
1956;DHT22;978;48.314;11.562;2022-08-21T02:20:16;22.70;87.90
1956;DHT22;978;48.314;11.562;2022-08-21T02:22:44;22.70;87.90
1956;DHT22;978;48.314;11.562;2022-08-21T02:25:11;22.70;87.90
1956;DHT22;978;48.314;11.562;2022-08-21T02:27:40;22.70;87.80
1956;DHT22;978;48.314;11.562;2022-08-21T02:30:09;22.70;87.90
1956;DHT22;978;48.314;11.562;2022-08-21T02:32:41;22.70;87.90
1956;DHT22;978;48.314;11.562;2022-08-21T02:35:09;22.70;87.80
1956;DHT22;978;48.314;11.562;2022-08-21T02:37:43;22.70;87.80
1956;DHT22;978;48.314;11.562;2022-08-21T02:40:11;22.70;87.80
1956;DHT22;978;48.314;11.562;2022-08-21T02:42:37;22.70;87.90
1956;DHT22;978;48.314;11.562;2022-08-21T02:45:06;22.70;87.90
1956;DHT22;978;48.314;11.562;2022-08-21T02:47:33;22.70;87.80
1956;DHT22;978;48.314;11.562;2022-08-21T02:50:02;22.70;87.80
1956;DHT22;978;48.314;11.562;2022-08-21T02:52:29;22.70;87.80
1956;DHT22;978;48.314;11.562;2022-08-21T02:54:55;22.70;87.80
1956;DHT22;978;48.314;11.562;2022-08-21T02:57:22;22.70;87.80
1956;DHT22;978;48.314;11.562;2022-08-21T02:59:50;22.70;87.80
1956;DHT22;978;48.314;11.562;2022-08-21T03:02:18;22.70;87.80
1956;DHT22;978;48.314;11.562;2022-08-21T03:04:47;22.70;87.80
1956;DHT22;978;48.314;11.562;2022-08-21T03:07:17;22.70;87.80
1956;DHT22;978;48.314;11.562;2022-08-21T03:09:45;22.70;87.80
1956;DHT22;978;48.314;11.562;2022-08-21T03:12:13;22.70;87.80
1956;DHT22;978;48.314;11.562;2022-08-21T03:14:40;22.70;87.80
1956;DHT22;978;48.314;11.562;2022-08-21T03:17:07;22.70;87.80
1956;DHT22;978;48.314;11.562;2022-08-21T03:19:34;22.70;87.80
1956;DHT22;978;48.314;11.562;2022-08-21T03:22:01;22.70;87.80
1956;DHT22;978;48.314;11.562;2022-08-21T03:24:29;22.70;87.80
1956;DHT22;978;48.314;11.562;2022-08-21T03:26:55;22.70;87.80
1956;DHT22;978;48.314;11.562;2022-08-21T03:29:22;22.70;87.80
1956;DHT22;978;48.314;11.562;2022-08-21T03:31:50;22.70;87.80
1956;DHT22;978;48.314;11.562;2022-08-21T03:34:20;22.70;87.80
1956;DHT22;978;48.314;11.562;2022-08-21T03:36:48;22.70;87.80
1956;DHT22;978;48.314;11.562;2022-08-21T03:39:17;22.70;87.80
1956;DHT22;978;48.314;11.562;2022-08-21T03:41:46;22.70;87.80
1956;DHT22;978;48.314;11.562;2022-08-21T03:44:14;22.70;87.80
1956;DHT22;978;48.314;11.562;2022-08-21T03:46:41;22.70;87.80
1956;DHT22;978;48.314;11.562;2022-08-21T03:49:10;22.70;87.80
1956;DHT22;978;48.314;11.562;2022-08-21T03:51:37;22.70;87.80
1956;DHT22;978;48.314;11.562;2022-08-21T03:54:04;22.70;87.80
1956;DHT22;978;48.314;11.562;2022-08-21T03:56:31;22.70;87.80
1956;DHT22;978;48.314;11.562;2022-08-21T03:58:59;22.70;87.80
1956;DHT22;978;48.314;11.562;2022-08-21T04:01:27;22.70;87.80
1956;DHT22;978;48.314;11.562;2022-08-21T04:03:54;22.70;87.80
1956;DHT22;978;48.314;11.562;2022-08-21T04:06:22;22.70;87.80
1956;DHT22;978;48.314;11.562;2022-08-21T04:08:50;22.70;87.80
1956;DHT22;978;48.314;11.562;2022-08-21T04:11:18;22.70;87.70
1956;DHT22;978;48.314;11.562;2022-08-21T04:13:50;22.70;87.80
1956;DHT22;978;48.314;11.562;2022-08-21T04:16:23;22.70;87.80
1956;DHT22;978;48.314;11.562;2022-08-21T04:18:51;22.70;87.80
1956;DHT22;978;48.314;11.562;2022-08-21T04:21:19;22.70;87.80
1956;DHT22;978;48.314;11.562;2022-08-21T04:23:48;22.70;87.80
1956;DHT22;978;48.314;11.562;2022-08-21T04:26:16;22.70;87.70
1956;DHT22;978;48.314;11.562;2022-08-21T04:28:42;22.70;87.80
1956;DHT22;978;48.314;11.562;2022-08-21T04:31:09;22.70;87.80
1956;DHT22;978;48.314;11.562;2022-08-21T04:33:37;22.70;87.80
1956;DHT22;978;48.314;11.562;2022-08-21T04:36:05;22.70;87.80
1956;DHT22;978;48.314;11.562;2022-08-21T04:38:32;22.70;87.80
1956;DHT22;978;48.314;11.562;2022-08-21T04:41:00;22.70;87.80
1956;DHT22;978;48.314;11.562;2022-08-21T04:43:26;22.70;87.80
1956;DHT22;978;48.314;11.562;2022-08-21T04:45:55;22.70;87.70
1956;DHT22;978;48.314;11.562;2022-08-21T04:48:23;22.70;87.70
1956;DHT22;978;48.314;11.562;2022-08-21T04:51:00;22.70;87.70
1956;DHT22;978;48.314;11.562;2022-08-21T04:53:33;22.70;87.70
1956;DHT22;978;48.314;11.562;2022-08-21T04:56:03;22.70;87.70
1956;DHT22;978;48.314;11.562;2022-08-21T04:58:34;22.70;87.70
1956;DHT22;978;48.314;11.562;2022-08-21T05:01:02;22.70;87.70
1956;DHT22;978;48.314;11.562;2022-08-21T05:03:32;22.70;87.70
1956;DHT22;978;48.314;11.562;2022-08-21T05:06:04;22.60;87.70
1956;DHT22;978;48.314;11.562;2022-08-21T05:08:31;22.70;87.80
1956;DHT22;978;48.314;11.562;2022-08-21T05:10:59;22.60;87.70
1956;DHT22;978;48.314;11.562;2022-08-21T05:13:28;22.70;87.80
1956;DHT22;978;48.314;11.562;2022-08-21T05:15:56;22.70;87.70
1956;DHT22;978;48.314;11.562;2022-08-21T05:18:25;22.70;87.80
1956;DHT22;978;48.314;11.562;2022-08-21T05:20:53;22.70;87.80
1956;DHT22;978;48.314;11.562;2022-08-21T05:23:22;22.70;87.80
1956;DHT22;978;48.314;11.562;2022-08-21T05:25:52;22.70;87.70
1956;DHT22;978;48.314;11.562;2022-08-21T05:28:24;22.70;87.80
1956;DHT22;978;48.314;11.562;2022-08-21T05:30:52;22.70;87.70
1956;DHT22;978;48.314;11.562;2022-08-21T05:33:22;22.70;87.70
1956;DHT22;978;48.314;11.562;2022-08-21T05:35:52;22.70;87.70
1956;DHT22;978;48.314;11.562;2022-08-21T05:38:28;22.70;87.70
1956;DHT22;978;48.314;11.562;2022-08-21T05:40:56;22.70;87.70
1956;DHT22;978;48.314;11.562;2022-08-21T05:43:23;22.70;87.70
1956;DHT22;978;48.314;11.562;2022-08-21T05:45:51;22.70;87.70
1956;DHT22;978;48.314;11.562;2022-08-21T05:48:21;22.70;87.70
1956;DHT22;978;48.314;11.562;2022-08-21T05:50:49;22.70;87.70
1956;DHT22;978;48.314;11.562;2022-08-21T05:53:18;22.70;87.80
1956;DHT22;978;48.314;11.562;2022-08-21T05:55:47;22.70;87.70
1956;DHT22;978;48.314;11.562;2022-08-21T05:58:19;22.70;87.70
1956;DHT22;978;48.314;11.562;2022-08-21T06:00:49;22.70;87.70
1956;DHT22;978;48.314;11.562;2022-08-21T06:03:18;22.70;87.70
1956;DHT22;978;48.314;11.562;2022-08-21T06:05:47;22.70;87.70
1956;DHT22;978;48.314;11.562;2022-08-21T06:08:15;22.70;87.70
1956;DHT22;978;48.314;11.562;2022-08-21T06:10:42;22.70;87.70
1956;DHT22;978;48.314;11.562;2022-08-21T06:13:11;22.70;87.70
1956;DHT22;978;48.314;11.562;2022-08-21T06:15:39;22.70;87.70
1956;DHT22;978;48.314;11.562;2022-08-21T06:18:05;22.60;87.60
1956;DHT22;978;48.314;11.562;2022-08-21T06:20:32;22.70;87.70
1956;DHT22;978;48.314;11.562;2022-08-21T06:23:01;22.70;87.70
1956;DHT22;978;48.314;11.562;2022-08-21T06:25:29;22.70;87.70
1956;DHT22;978;48.314;11.562;2022-08-21T06:28:01;22.70;87.70
1956;DHT22;978;48.314;11.562;2022-08-21T06:30:31;22.70;87.70
1956;DHT22;978;48.314;11.562;2022-08-21T06:32:59;22.70;87.70
1956;DHT22;978;48.314;11.562;2022-08-21T06:35:28;22.70;87.70
1956;DHT22;978;48.314;11.562;2022-08-21T06:37:57;22.60;87.60
1956;DHT22;978;48.314;11.562;2022-08-21T06:40:25;22.70;87.70
1956;DHT22;978;48.314;11.562;2022-08-21T06:42:53;22.70;87.70
1956;DHT22;978;48.314;11.562;2022-08-21T06:45:20;22.70;87.70
1956;DHT22;978;48.314;11.562;2022-08-21T06:47:51;22.70;87.70
1956;DHT22;978;48.314;11.562;2022-08-21T06:50:20;22.70;87.70
1956;DHT22;978;48.314;11.562;2022-08-21T06:52:47;22.70;87.70
1956;DHT22;978;48.314;11.562;2022-08-21T06:55:13;22.70;87.70
1956;DHT22;978;48.314;11.562;2022-08-21T06:57:41;22.70;87.70
1956;DHT22;978;48.314;11.562;2022-08-21T07:00:09;22.70;87.70
1956;DHT22;978;48.314;11.562;2022-08-21T07:02:36;22.70;87.70
1956;DHT22;978;48.314;11.562;2022-08-21T07:05:05;22.70;87.70
1956;DHT22;978;48.314;11.562;2022-08-21T07:07:33;22.70;87.70
1956;DHT22;978;48.314;11.562;2022-08-21T07:10:02;22.70;87.70
1956;DHT22;978;48.314;11.562;2022-08-21T07:12:30;22.70;87.70
1956;DHT22;978;48.314;11.562;2022-08-21T07:14:58;22.70;87.70
1956;DHT22;978;48.314;11.562;2022-08-21T07:17:26;22.70;87.70
1956;DHT22;978;48.314;11.562;2022-08-21T07:19:53;22.60;87.60
1956;DHT22;978;48.314;11.562;2022-08-21T07:22:27;22.70;87.70
1956;DHT22;978;48.314;11.562;2022-08-21T07:24:55;22.70;87.70
1956;DHT22;978;48.314;11.562;2022-08-21T07:27:22;22.70;87.70
1956;DHT22;978;48.314;11.562;2022-08-21T07:29:49;22.70;87.80
1956;DHT22;978;48.314;11.562;2022-08-21T07:32:15;22.70;87.70
1956;DHT22;978;48.314;11.562;2022-08-21T07:34:42;22.70;87.70
1956;DHT22;978;48.314;11.562;2022-08-21T07:37:09;22.60;87.60
1956;DHT22;978;48.314;11.562;2022-08-21T07:39:38;22.70;87.70
1956;DHT22;978;48.314;11.562;2022-08-21T07:42:04;22.70;87.70
1956;DHT22;978;48.314;11.562;2022-08-21T07:44:32;22.70;87.70
1956;DHT22;978;48.314;11.562;2022-08-21T07:47:01;22.70;87.70
1956;DHT22;978;48.314;11.562;2022-08-21T07:49:29;22.70;87.70
1956;DHT22;978;48.314;11.562;2022-08-21T07:51:58;22.70;87.70
1956;DHT22;978;48.314;11.562;2022-08-21T07:54:25;22.60;87.60
1956;DHT22;978;48.314;11.562;2022-08-21T07:56:58;22.70;87.70
1956;DHT22;978;48.314;11.562;2022-08-21T07:59:25;22.70;87.70
1956;DHT22;978;48.314;11.562;2022-08-21T08:01:54;22.70;87.70
1956;DHT22;978;48.314;11.562;2022-08-21T08:04:21;22.70;87.70
1956;DHT22;978;48.314;11.562;2022-08-21T08:06:48;22.60;87.60
1956;DHT22;978;48.314;11.562;2022-08-21T08:09:15;22.60;87.70
1956;DHT22;978;48.314;11.562;2022-08-21T08:11:43;22.70;87.70
1956;DHT22;978;48.314;11.562;2022-08-21T08:14:11;22.70;87.70
1956;DHT22;978;48.314;11.562;2022-08-21T08:16:38;22.70;87.70
1956;DHT22;978;48.314;11.562;2022-08-21T08:19:05;22.70;87.70
1956;DHT22;978;48.314;11.562;2022-08-21T08:21:33;22.70;87.70
1956;DHT22;978;48.314;11.562;2022-08-21T08:24:03;22.70;87.70
1956;DHT22;978;48.314;11.562;2022-08-21T08:26:32;22.70;87.70
1956;DHT22;978;48.314;11.562;2022-08-21T08:29:00;22.70;87.70
1956;DHT22;978;48.314;11.562;2022-08-21T08:31:30;22.60;87.70
1956;DHT22;978;48.314;11.562;2022-08-21T08:33:57;22.70;87.80
1956;DHT22;978;48.314;11.562;2022-08-21T08:36:32;22.70;87.70
1956;DHT22;978;48.314;11.562;2022-08-21T08:39:00;22.70;87.70
1956;DHT22;978;48.314;11.562;2022-08-21T08:41:27;22.70;87.80
1956;DHT22;978;48.314;11.562;2022-08-21T08:43:59;22.70;87.80
1956;DHT22;978;48.314;11.562;2022-08-21T08:46:35;22.70;87.80
1956;DHT22;978;48.314;11.562;2022-08-21T08:49:08;22.70;87.80
1956;DHT22;978;48.314;11.562;2022-08-21T08:51:42;22.70;87.80
1956;DHT22;978;48.314;11.562;2022-08-21T08:54:13;22.70;87.80
1956;DHT22;978;48.314;11.562;2022-08-21T08:56:42;22.70;87.80
1956;DHT22;978;48.314;11.562;2022-08-21T08:59:15;22.70;87.80
1956;DHT22;978;48.314;11.562;2022-08-21T09:01:45;22.70;87.80
1956;DHT22;978;48.314;11.562;2022-08-21T09:04:13;22.70;87.90
1956;DHT22;978;48.314;11.562;2022-08-21T09:06:53;22.70;87.90
1956;DHT22;978;48.314;11.562;2022-08-21T09:09:29;22.70;87.90
1956;DHT22;978;48.314;11.562;2022-08-21T09:12:03;22.70;87.90
1956;DHT22;978;48.314;11.562;2022-08-21T09:14:55;22.70;87.90
1956;DHT22;978;48.314;11.562;2022-08-21T09:17:38;22.60;87.90
1956;DHT22;978;48.314;11.562;2022-08-21T09:20:15;22.70;87.90
1956;DHT22;978;48.314;11.562;2022-08-21T09:22:52;22.70;88.00
1956;DHT22;978;48.314;11.562;2022-08-21T09:25:26;22.70;87.90
1956;DHT22;978;48.314;11.562;2022-08-21T09:27:54;22.70;88.00
1956;DHT22;978;48.314;11.562;2022-08-21T09:30:29;22.70;88.00
1956;DHT22;978;48.314;11.562;2022-08-21T09:32:58;22.70;88.00
1956;DHT22;978;48.314;11.562;2022-08-21T09:35:25;22.70;88.00
1956;DHT22;978;48.314;11.562;2022-08-21T09:37:54;22.70;88.00
1956;DHT22;978;48.314;11.562;2022-08-21T09:40:33;22.70;88.00
1956;DHT22;978;48.314;11.562;2022-08-21T09:43:05;22.70;88.10
1956;DHT22;978;48.314;11.562;2022-08-21T09:45:34;22.70;88.10
1956;DHT22;978;48.314;11.562;2022-08-21T09:48:11;22.70;88.10
1956;DHT22;978;48.314;11.562;2022-08-21T09:50:40;22.70;88.10
1956;DHT22;978;48.314;11.562;2022-08-21T09:53:16;22.60;88.00
1956;DHT22;978;48.314;11.562;2022-08-21T09:55:49;22.70;88.10
1956;DHT22;978;48.314;11.562;2022-08-21T09:58:37;22.60;88.10
1956;DHT22;978;48.314;11.562;2022-08-21T10:01:06;22.60;88.10
1956;DHT22;978;48.314;11.562;2022-08-21T10:03:35;22.70;88.10
1956;DHT22;978;48.314;11.562;2022-08-21T10:06:05;22.70;88.20
1956;DHT22;978;48.314;11.562;2022-08-21T10:08:38;22.70;88.20
1956;DHT22;978;48.314;11.562;2022-08-21T10:11:07;22.70;88.20
1956;DHT22;978;48.314;11.562;2022-08-21T10:13:51;22.70;88.20
1956;DHT22;978;48.314;11.562;2022-08-21T10:16:30;22.70;88.20
1956;DHT22;978;48.314;11.562;2022-08-21T10:19:18;22.70;88.20
1956;DHT22;978;48.314;11.562;2022-08-21T10:21:57;22.70;88.20
1956;DHT22;978;48.314;11.562;2022-08-21T10:24:29;22.60;88.20
1956;DHT22;978;48.314;11.562;2022-08-21T10:27:09;22.70;88.30
1956;DHT22;978;48.314;11.562;2022-08-21T10:29:46;22.70;88.30
1956;DHT22;978;48.314;11.562;2022-08-21T10:32:23;22.70;88.30
1956;DHT22;978;48.314;11.562;2022-08-21T10:35:02;22.70;88.30
1956;DHT22;978;48.314;11.562;2022-08-21T10:37:48;22.70;88.30
1956;DHT22;978;48.314;11.562;2022-08-21T10:40:22;22.60;88.30
1956;DHT22;978;48.314;11.562;2022-08-21T10:42:59;22.70;88.40
1956;DHT22;978;48.314;11.562;2022-08-21T10:45:38;22.70;88.40
1956;DHT22;978;48.314;11.562;2022-08-21T10:48:22;22.60;88.90
1956;DHT22;978;48.314;11.562;2022-08-21T10:50:57;22.70;88.40
1956;DHT22;978;48.314;11.562;2022-08-21T10:53:36;22.70;88.40
1956;DHT22;978;48.314;11.562;2022-08-21T10:56:15;22.60;88.30
1956;DHT22;978;48.314;11.562;2022-08-21T10:58:54;22.70;88.40
1956;DHT22;978;48.314;11.562;2022-08-21T11:01:28;22.70;88.40
1956;DHT22;978;48.314;11.562;2022-08-21T11:04:09;22.70;88.40
1956;DHT22;978;48.314;11.562;2022-08-21T11:06:45;22.70;88.40
1956;DHT22;978;48.314;11.562;2022-08-21T11:09:14;22.60;88.30
1956;DHT22;978;48.314;11.562;2022-08-21T11:11:47;22.70;88.40
1956;DHT22;978;48.314;11.562;2022-08-21T11:14:21;22.70;88.40
1956;DHT22;978;48.314;11.562;2022-08-21T11:16:56;22.70;88.40
1956;DHT22;978;48.314;11.562;2022-08-21T11:19:28;22.70;88.40
1956;DHT22;978;48.314;11.562;2022-08-21T11:22:02;22.70;88.40
1956;DHT22;978;48.314;11.562;2022-08-21T11:24:40;22.70;88.40
1956;DHT22;978;48.314;11.562;2022-08-21T11:27:15;22.60;88.30
1956;DHT22;978;48.314;11.562;2022-08-21T11:29:49;22.70;88.40
1956;DHT22;978;48.314;11.562;2022-08-21T11:35:33;22.70;88.30
1956;DHT22;978;48.314;11.562;2022-08-21T11:38:28;22.60;88.20
1956;DHT22;978;48.314;11.562;2022-08-21T11:41:11;22.60;88.20
1956;DHT22;978;48.314;11.562;2022-08-21T11:43:43;22.70;88.20
1956;DHT22;978;48.314;11.562;2022-08-21T11:46:25;22.70;88.30
1956;DHT22;978;48.314;11.562;2022-08-21T11:49:03;22.60;88.10
1956;DHT22;978;48.314;11.562;2022-08-21T11:51:37;22.70;88.20
1956;DHT22;978;48.314;11.562;2022-08-21T11:54:16;22.60;88.10
1956;DHT22;978;48.314;11.562;2022-08-21T11:56:53;22.70;88.20
1956;DHT22;978;48.314;11.562;2022-08-21T11:59:23;22.70;88.20
1956;DHT22;978;48.314;11.562;2022-08-21T12:01:51;22.70;88.20
1956;DHT22;978;48.314;11.562;2022-08-21T12:04:26;22.70;88.10
1956;DHT22;978;48.314;11.562;2022-08-21T12:06:54;22.60;88.10
1956;DHT22;978;48.314;11.562;2022-08-21T12:09:32;22.70;88.20
1956;DHT22;978;48.314;11.562;2022-08-21T12:12:04;22.60;88.10
1956;DHT22;978;48.314;11.562;2022-08-21T12:14:40;22.60;88.10
1956;DHT22;978;48.314;11.562;2022-08-21T12:17:17;22.60;88.10
1956;DHT22;978;48.314;11.562;2022-08-21T12:19:56;22.70;88.10
1956;DHT22;978;48.314;11.562;2022-08-21T12:22:36;22.70;88.10
1956;DHT22;978;48.314;11.562;2022-08-21T12:25:08;22.60;88.00
1956;DHT22;978;48.314;11.562;2022-08-21T12:27:45;22.60;88.00
1956;DHT22;978;48.314;11.562;2022-08-21T12:30:23;22.70;88.00
1956;DHT22;978;48.314;11.562;2022-08-21T12:32:57;22.70;88.00
1956;DHT22;978;48.314;11.562;2022-08-21T12:35:26;22.70;88.00
1956;DHT22;978;48.314;11.562;2022-08-21T12:37:58;22.70;87.90
1956;DHT22;978;48.314;11.562;2022-08-21T12:40:33;22.60;87.90
1956;DHT22;978;48.314;11.562;2022-08-21T12:43:04;22.70;87.90
1956;DHT22;978;48.314;11.562;2022-08-21T12:45:33;22.60;87.80
1956;DHT22;978;48.314;11.562;2022-08-21T12:48:08;22.70;87.90
1956;DHT22;978;48.314;11.562;2022-08-21T12:50:38;22.70;87.80
1956;DHT22;978;48.314;11.562;2022-08-21T12:53:08;22.70;87.80
1956;DHT22;978;48.314;11.562;2022-08-21T12:55:40;22.70;87.80
1956;DHT22;978;48.314;11.562;2022-08-21T12:58:17;22.60;87.70
1956;DHT22;978;48.314;11.562;2022-08-21T13:00:49;22.70;87.80
1956;DHT22;978;48.314;11.562;2022-08-21T13:03:17;22.70;87.80
1956;DHT22;978;48.314;11.562;2022-08-21T13:05:46;22.60;87.70
1956;DHT22;978;48.314;11.562;2022-08-21T13:08:14;22.70;87.70
1956;DHT22;978;48.314;11.562;2022-08-21T13:10:44;22.70;87.60
1956;DHT22;978;48.314;11.562;2022-08-21T13:13:17;22.70;87.60
1956;DHT22;978;48.314;11.562;2022-08-21T13:15:48;22.70;87.60
1956;DHT22;978;48.314;11.562;2022-08-21T13:18:27;22.70;87.60
1956;DHT22;978;48.314;11.562;2022-08-21T13:21:04;22.70;87.60
1956;DHT22;978;48.314;11.562;2022-08-21T13:23:31;22.70;87.60
1956;DHT22;978;48.314;11.562;2022-08-21T13:26:00;22.70;87.60
1956;DHT22;978;48.314;11.562;2022-08-21T13:28:34;22.70;87.70
1956;DHT22;978;48.314;11.562;2022-08-21T13:31:06;22.70;87.70
1956;DHT22;978;48.314;11.562;2022-08-21T13:33:34;22.70;87.70
1956;DHT22;978;48.314;11.562;2022-08-21T13:36:06;22.70;87.70
1956;DHT22;978;48.314;11.562;2022-08-21T13:38:35;22.70;87.70
1956;DHT22;978;48.314;11.562;2022-08-21T13:41:08;22.60;87.70
1956;DHT22;978;48.314;11.562;2022-08-21T13:43:37;22.70;87.70
1956;DHT22;978;48.314;11.562;2022-08-21T13:46:10;22.70;87.70
1956;DHT22;978;48.314;11.562;2022-08-21T13:48:38;22.70;87.70
1956;DHT22;978;48.314;11.562;2022-08-21T13:51:05;22.70;87.70
1956;DHT22;978;48.314;11.562;2022-08-21T13:53:35;22.70;87.70
1956;DHT22;978;48.314;11.562;2022-08-21T13:56:05;22.70;87.80
1956;DHT22;978;48.314;11.562;2022-08-21T13:58:33;22.60;87.70
1956;DHT22;978;48.314;11.562;2022-08-21T14:01:18;22.70;87.70
1956;DHT22;978;48.314;11.562;2022-08-21T14:03:47;22.60;87.70
1956;DHT22;978;48.314;11.562;2022-08-21T14:06:18;22.70;87.80
1956;DHT22;978;48.314;11.562;2022-08-21T14:08:50;22.70;87.80
1956;DHT22;978;48.314;11.562;2022-08-21T14:11:20;22.60;87.70
1956;DHT22;978;48.314;11.562;2022-08-21T14:13:51;22.70;87.80
1956;DHT22;978;48.314;11.562;2022-08-21T14:16:25;22.70;87.80
1956;DHT22;978;48.314;11.562;2022-08-21T14:19:08;22.70;87.80
1956;DHT22;978;48.314;11.562;2022-08-21T14:21:38;22.60;87.80
1956;DHT22;978;48.314;11.562;2022-08-21T14:24:08;22.70;87.80
1956;DHT22;978;48.314;11.562;2022-08-21T14:26:44;22.60;87.80
1956;DHT22;978;48.314;11.562;2022-08-21T14:29:14;22.60;87.80
1956;DHT22;978;48.314;11.562;2022-08-21T14:31:42;22.60;87.80
1956;DHT22;978;48.314;11.562;2022-08-21T14:34:11;22.70;87.80
1956;DHT22;978;48.314;11.562;2022-08-21T14:36:40;22.70;87.80
1956;DHT22;978;48.314;11.562;2022-08-21T14:39:08;22.60;87.80
1956;DHT22;978;48.314;11.562;2022-08-21T14:41:36;22.70;87.80
1956;DHT22;978;48.314;11.562;2022-08-21T14:44:04;22.70;87.80
1956;DHT22;978;48.314;11.562;2022-08-21T14:46:32;22.70;87.80
1956;DHT22;978;48.314;11.562;2022-08-21T14:48:59;22.70;87.80
1956;DHT22;978;48.314;11.562;2022-08-21T14:51:27;22.60;87.80
1956;DHT22;978;48.314;11.562;2022-08-21T14:53:55;22.70;87.90
1956;DHT22;978;48.314;11.562;2022-08-21T14:56:23;22.70;87.80
1956;DHT22;978;48.314;11.562;2022-08-21T14:58:55;22.60;87.80
1956;DHT22;978;48.314;11.562;2022-08-21T15:01:26;22.60;87.80
1956;DHT22;978;48.314;11.562;2022-08-21T15:03:54;22.70;87.80
1956;DHT22;978;48.314;11.562;2022-08-21T15:06:22;22.70;87.80
1956;DHT22;978;48.314;11.562;2022-08-21T15:08:49;22.60;87.80
1956;DHT22;978;48.314;11.562;2022-08-21T15:11:20;22.70;87.90
1956;DHT22;978;48.314;11.562;2022-08-21T15:13:55;22.60;87.80
1956;DHT22;978;48.314;11.562;2022-08-21T15:16:27;22.70;87.90
1956;DHT22;978;48.314;11.562;2022-08-21T15:18:57;22.60;87.80
1956;DHT22;978;48.314;11.562;2022-08-21T15:21:25;22.60;87.80
1956;DHT22;978;48.314;11.562;2022-08-21T15:23:53;22.70;87.90
1956;DHT22;978;48.314;11.562;2022-08-21T15:26:22;22.70;87.80
1956;DHT22;978;48.314;11.562;2022-08-21T15:28:50;22.60;87.80
1956;DHT22;978;48.314;11.562;2022-08-21T15:31:19;22.60;87.80
1956;DHT22;978;48.314;11.562;2022-08-21T15:33:47;22.70;87.80
1956;DHT22;978;48.314;11.562;2022-08-21T15:36:13;22.70;87.80
1956;DHT22;978;48.314;11.562;2022-08-21T15:38:40;22.70;87.90
1956;DHT22;978;48.314;11.562;2022-08-21T15:41:07;22.60;87.80
1956;DHT22;978;48.314;11.562;2022-08-21T15:43:39;22.70;87.90
1956;DHT22;978;48.314;11.562;2022-08-21T15:46:10;22.70;87.80
1956;DHT22;978;48.314;11.562;2022-08-21T15:48:38;22.60;87.80
1956;DHT22;978;48.314;11.562;2022-08-21T15:51:06;22.60;87.80
1956;DHT22;978;48.314;11.562;2022-08-21T15:53:33;22.60;87.80
1956;DHT22;978;48.314;11.562;2022-08-21T15:56:04;22.60;87.80
1956;DHT22;978;48.314;11.562;2022-08-21T15:58:32;22.70;87.80
1956;DHT22;978;48.314;11.562;2022-08-21T16:01:02;22.60;87.80
1956;DHT22;978;48.314;11.562;2022-08-21T16:03:31;22.60;87.80
1956;DHT22;978;48.314;11.562;2022-08-21T16:06:00;22.70;87.80
1956;DHT22;978;48.314;11.562;2022-08-21T16:08:30;22.60;87.80
1956;DHT22;978;48.314;11.562;2022-08-21T16:10:59;22.60;87.80
1956;DHT22;978;48.314;11.562;2022-08-21T16:13:34;22.70;87.90
1956;DHT22;978;48.314;11.562;2022-08-21T16:16:04;22.60;87.80
1956;DHT22;978;48.314;11.562;2022-08-21T16:18:32;22.70;87.80
1956;DHT22;978;48.314;11.562;2022-08-21T16:21:00;22.60;87.80
1956;DHT22;978;48.314;11.562;2022-08-21T16:23:30;22.70;87.80
1956;DHT22;978;48.314;11.562;2022-08-21T16:25:58;22.70;87.80